Columbia, Tennessee
Current Conditions -  °F | °C
As of 12:55 AM on Monday 24 Nov 2014 (Local Time) from KMRC Reporting Station
Clear Clear  
Wind Chill: 61°   Ceiling: Unl
Heat Index: 61°   Visibility: 10mi
Dew Point: 61°   Wind: 17mph
Humidity: 100%   Direction: 190°S
Pressure: 29.49"   Gusts: 28mph
Location:  35.62°N, 87.03°W
Report Text: KMRC 240655Z AUTO 19015G24KT 10SM CLR 16/16 A2949 RMK
Loading
Personal Weather Stations






























Interactive Weather Map New forecast layout! Learn more

10-Day Weather Forecast

Advertisements
Track Severe Weather on mobile